sensor_id;sensor_type;location;lat;lon;timestamp;P1;durP1;ratioP1;P2;durP2;ratioP2
65665;SDS011;52365;47.464;18.976;2024-03-02T00:00:13;31.85;;;20.00;;
65665;SDS011;52365;47.464;18.976;2024-03-02T00:00:34;32.65;;;20.05;;
65665;SDS011;52365;47.464;18.976;2024-03-02T00:00:55;32.25;;;20.23;;
65665;SDS011;52365;47.464;18.976;2024-03-02T00:01:16;33.25;;;20.30;;
65665;SDS011;52365;47.464;18.976;2024-03-02T00:01:37;31.27;;;19.55;;
65665;SDS011;52365;47.464;18.976;2024-03-02T00:01:58;31.17;;;19.85;;
65665;SDS011;52365;47.464;18.976;2024-03-02T00:02:14;30.75;;;19.67;;
65665;SDS011;52365;47.464;18.976;2024-03-02T00:02:41;30.88;;;20.08;;
65665;SDS011;52365;47.464;18.976;2024-03-02T00:03:03;31.67;;;20.33;;
65665;SDS011;52365;47.464;18.976;2024-03-02T00:03:24;31.55;;;20.60;;
65665;SDS011;52365;47.464;18.976;2024-03-02T00:03:45;34.63;;;20.37;;
65665;SDS011;52365;47.464;18.976;2024-03-02T00:04:06;35.60;;;20.15;;
65665;SDS011;52365;47.464;18.976;2024-03-02T00:04:28;31.50;;;19.95;;
65665;SDS011;52365;47.464;18.976;2024-03-02T00:04:49;30.12;;;20.37;;
65665;SDS011;52365;47.464;18.976;2024-03-02T00:05:14;33.13;;;20.30;;
65665;SDS011;52365;47.464;18.976;2024-03-02T00:05:36;33.97;;;20.62;;
65665;SDS011;52365;47.464;18.976;2024-03-02T00:05:57;31.73;;;19.80;;
65665;SDS011;52365;47.464;18.976;2024-03-02T00:06:19;33.92;;;20.10;;
65665;SDS011;52365;47.464;18.976;2024-03-02T00:06:41;32.10;;;19.87;;
65665;SDS011;52365;47.464;18.976;2024-03-02T00:07:02;30.48;;;19.70;;
65665;SDS011;52365;47.464;18.976;2024-03-02T00:07:26;34.53;;;19.85;;
65665;SDS011;52365;47.464;18.976;2024-03-02T00:07:56;33.58;;;19.83;;
65665;SDS011;52365;47.464;18.976;2024-03-02T00:08:22;33.38;;;19.50;;
65665;SDS011;52365;47.464;18.976;2024-03-02T00:08:45;32.58;;;19.92;;
65665;SDS011;52365;47.464;18.976;2024-03-02T00:09:06;32.55;;;19.50;;
65665;SDS011;52365;47.464;18.976;2024-03-02T00:09:29;32.47;;;19.35;;
65665;SDS011;52365;47.464;18.976;2024-03-02T00:09:46;31.48;;;19.62;;
65665;SDS011;52365;47.464;18.976;2024-03-02T00:10:07;31.02;;;20.10;;
65665;SDS011;52365;47.464;18.976;2024-03-02T00:10:34;29.98;;;19.08;;
65665;SDS011;52365;47.464;18.976;2024-03-02T00:11:00;29.87;;;18.52;;
65665;SDS011;52365;47.464;18.976;2024-03-02T00:11:23;29.50;;;18.58;;
65665;SDS011;52365;47.464;18.976;2024-03-02T00:11:44;31.92;;;19.40;;
65665;SDS011;52365;47.464;18.976;2024-03-02T00:12:05;31.80;;;19.75;;
65665;SDS011;52365;47.464;18.976;2024-03-02T00:12:26;33.90;;;20.05;;
65665;SDS011;52365;47.464;18.976;2024-03-02T00:12:47;33.70;;;19.35;;
65665;SDS011;52365;47.464;18.976;2024-03-02T00:13:08;32.80;;;19.90;;
65665;SDS011;52365;47.464;18.976;2024-03-02T00:13:29;32.83;;;19.58;;
65665;SDS011;52365;47.464;18.976;2024-03-02T00:13:53;30.80;;;19.60;;
65665;SDS011;52365;47.464;18.976;2024-03-02T00:14:14;31.58;;;19.80;;
65665;SDS011;52365;47.464;18.976;2024-03-02T00:14:36;30.30;;;19.50;;
65665;SDS011;52365;47.464;18.976;2024-03-02T00:14:57;32.35;;;19.27;;
65665;SDS011;52365;47.464;18.976;2024-03-02T00:16:08;32.33;;;19.20;;
65665;SDS011;52365;47.464;18.976;2024-03-02T00:16:30;37.30;;;20.05;;
65665;SDS011;52365;47.464;18.976;2024-03-02T00:16:52;32.33;;;19.60;;
65665;SDS011;52365;47.464;18.976;2024-03-02T00:17:17;30.67;;;19.05;;
65665;SDS011;52365;47.464;18.976;2024-03-02T00:17:45;32.70;;;18.80;;
65665;SDS011;52365;47.464;18.976;2024-03-02T00:18:14;32.53;;;19.00;;
65665;SDS011;52365;47.464;18.976;2024-03-02T00:18:41;34.67;;;19.77;;
65665;SDS011;52365;47.464;18.976;2024-03-02T00:19:03;33.53;;;19.85;;
65665;SDS011;52365;47.464;18.976;2024-03-02T00:19:26;31.70;;;19.12;;
65665;SDS011;52365;47.464;18.976;2024-03-02T00:19:47;30.52;;;19.08;;
65665;SDS011;52365;47.464;18.976;2024-03-02T00:20:08;33.10;;;19.55;;
65665;SDS011;52365;47.464;18.976;2024-03-02T00:20:30;30.02;;;18.90;;
65665;SDS011;52365;47.464;18.976;2024-03-02T00:20:56;31.48;;;18.62;;
65665;SDS011;52365;47.464;18.976;2024-03-02T00:21:18;34.42;;;19.90;;
65665;SDS011;52365;47.464;18.976;2024-03-02T00:21:41;33.25;;;19.20;;
65665;SDS011;52365;47.464;18.976;2024-03-02T00:22:02;31.02;;;18.70;;
65665;SDS011;52365;47.464;18.976;2024-03-02T00:22:24;33.03;;;19.10;;
65665;SDS011;52365;47.464;18.976;2024-03-02T00:22:45;31.60;;;19.10;;
65665;SDS011;52365;47.464;18.976;2024-03-02T00:23:06;31.48;;;18.87;;
65665;SDS011;52365;47.464;18.976;2024-03-02T00:23:29;28.45;;;18.23;;
65665;SDS011;52365;47.464;18.976;2024-03-02T00:23:51;30.42;;;18.50;;
65665;SDS011;52365;47.464;18.976;2024-03-02T00:24:32;29.15;;;18.40;;
65665;SDS011;52365;47.464;18.976;2024-03-02T00:24:58;32.53;;;18.83;;
65665;SDS011;52365;47.464;18.976;2024-03-02T00:25:20;30.95;;;18.65;;
65665;SDS011;52365;47.464;18.976;2024-03-02T00:25:51;31.85;;;18.20;;
65665;SDS011;52365;47.464;18.976;2024-03-02T00:26:14;31.10;;;18.60;;
65665;SDS011;52365;47.464;18.976;2024-03-02T00:26:36;29.12;;;18.45;;
65665;SDS011;52365;47.464;18.976;2024-03-02T00:26:57;30.37;;;18.60;;
65665;SDS011;52365;47.464;18.976;2024-03-02T00:27:18;28.58;;;18.33;;
65665;SDS011;52365;47.464;18.976;2024-03-02T00:27:40;31.95;;;18.23;;
65665;SDS011;52365;47.464;18.976;2024-03-02T00:28:01;33.03;;;18.87;;
65665;SDS011;52365;47.464;18.976;2024-03-02T00:28:29;29.40;;;18.37;;
65665;SDS011;52365;47.464;18.976;2024-03-02T00:28:54;33.70;;;19.58;;
65665;SDS011;52365;47.464;18.976;2024-03-02T00:29:21;30.15;;;18.62;;
65665;SDS011;52365;47.464;18.976;2024-03-02T00:29:42;29.98;;;18.62;;
65665;SDS011;52365;47.464;18.976;2024-03-02T00:30:50;31.37;;;18.83;;
65665;SDS011;52365;47.464;18.976;2024-03-02T00:31:07;30.48;;;18.35;;
65665;SDS011;52365;47.464;18.976;2024-03-02T00:31:32;32.30;;;18.92;;
65665;SDS011;52365;47.464;18.976;2024-03-02T00:31:52;30.77;;;18.75;;
65665;SDS011;52365;47.464;18.976;2024-03-02T00:32:15;30.30;;;18.23;;
65665;SDS011;52365;47.464;18.976;2024-03-02T00:32:37;34.00;;;18.62;;
65665;SDS011;52365;47.464;18.976;2024-03-02T00:32:58;31.52;;;18.27;;
65665;SDS011;52365;47.464;18.976;2024-03-02T00:33:20;30.62;;;18.08;;
65665;SDS011;52365;47.464;18.976;2024-03-02T00:33:42;29.30;;;17.77;;
65665;SDS011;52365;47.464;18.976;2024-03-02T00:34:07;31.10;;;18.50;;
65665;SDS011;52365;47.464;18.976;2024-03-02T00:34:28;31.73;;;18.08;;
65665;SDS011;52365;47.464;18.976;2024-03-02T00:34:44;32.15;;;18.23;;
65665;SDS011;52365;47.464;18.976;2024-03-02T00:35:05;30.15;;;18.10;;
65665;SDS011;52365;47.464;18.976;2024-03-02T00:35:26;31.77;;;18.92;;
65665;SDS011;52365;47.464;18.976;2024-03-02T00:35:47;30.15;;;19.12;;
65665;SDS011;52365;47.464;18.976;2024-03-02T00:36:10;29.42;;;18.73;;
65665;SDS011;52365;47.464;18.976;2024-03-02T00:36:33;31.17;;;19.00;;
65665;SDS011;52365;47.464;18.976;2024-03-02T00:36:56;31.17;;;18.73;;
65665;SDS011;52365;47.464;18.976;2024-03-02T00:37:18;29.30;;;18.92;;
65665;SDS011;52365;47.464;18.976;2024-03-02T00:37:39;31.20;;;18.87;;
65665;SDS011;52365;47.464;18.976;2024-03-02T00:38:06;32.45;;;18.73;;
65665;SDS011;52365;47.464;18.976;2024-03-02T00:38:27;32.67;;;19.55;;
65665;SDS011;52365;47.464;18.976;2024-03-02T00:38:50;29.90;;;18.67;;
65665;SDS011;52365;47.464;18.976;2024-03-02T00:39:12;31.10;;;19.27;;
65665;SDS011;52365;47.464;18.976;2024-03-02T00:39:35;32.45;;;19.37;;
65665;SDS011;52365;47.464;18.976;2024-03-02T00:39:56;30.35;;;19.15;;
65665;SDS011;52365;47.464;18.976;2024-03-02T00:40:17;29.15;;;19.15;;
65665;SDS011;52365;47.464;18.976;2024-03-02T00:40:39;30.50;;;19.10;;
65665;SDS011;52365;47.464;18.976;2024-03-02T00:41:04;31.75;;;19.08;;
65665;SDS011;52365;47.464;18.976;2024-03-02T00:41:32;33.50;;;19.23;;
65665;SDS011;52365;47.464;18.976;2024-03-02T00:41:53;29.95;;;18.80;;
65665;SDS011;52365;47.464;18.976;2024-03-02T00:42:14;30.37;;;18.83;;
65665;SDS011;52365;47.464;18.976;2024-03-02T00:42:35;31.20;;;18.55;;
65665;SDS011;52365;47.464;18.976;2024-03-02T00:42:56;29.85;;;17.77;;
65665;SDS011;52365;47.464;18.976;2024-03-02T00:43:38;30.48;;;18.62;;
65665;SDS011;52365;47.464;18.976;2024-03-02T00:44:02;29.48;;;19.05;;
65665;SDS011;52365;47.464;18.976;2024-03-02T00:44:25;31.65;;;18.80;;
65665;SDS011;52365;47.464;18.976;2024-03-02T00:44:55;29.77;;;19.12;;
65665;SDS011;52365;47.464;18.976;2024-03-02T00:45:16;31.25;;;19.37;;
65665;SDS011;52365;47.464;18.976;2024-03-02T00:45:39;32.58;;;18.67;;
65665;SDS011;52365;47.464;18.976;2024-03-02T00:46:00;35.38;;;18.37;;
65665;SDS011;52365;47.464;18.976;2024-03-02T00:46:21;30.33;;;17.75;;
65665;SDS011;52365;47.464;18.976;2024-03-02T00:46:43;29.65;;;18.52;;
65665;SDS011;52365;47.464;18.976;2024-03-02T00:47:04;31.77;;;18.92;;
65665;SDS011;52365;47.464;18.976;2024-03-02T00:47:25;31.83;;;18.90;;
65665;SDS011;52365;47.464;18.976;2024-03-02T00:47:46;30.37;;;18.23;;
65665;SDS011;52365;47.464;18.976;2024-03-02T00:48:07;30.15;;;18.00;;
65665;SDS011;52365;47.464;18.976;2024-03-02T00:48:29;31.42;;;18.33;;
65665;SDS011;52365;47.464;18.976;2024-03-02T00:48:55;29.83;;;18.45;;
65665;SDS011;52365;47.464;18.976;2024-03-02T00:49:21;30.73;;;18.77;;
65665;SDS011;52365;47.464;18.976;2024-03-02T00:49:43;31.40;;;18.73;;
65665;SDS011;52365;47.464;18.976;2024-03-02T00:50:08;31.35;;;18.35;;
65665;SDS011;52365;47.464;18.976;2024-03-02T00:50:29;30.67;;;18.65;;
65665;SDS011;52365;47.464;18.976;2024-03-02T00:50:52;30.88;;;17.87;;
65665;SDS011;52365;47.464;18.976;2024-03-02T00:51:08;28.38;;;17.23;;
65665;SDS011;52365;47.464;18.976;2024-03-02T00:51:30;30.98;;;18.58;;
65665;SDS011;52365;47.464;18.976;2024-03-02T00:51:52;30.48;;;18.98;;
65665;SDS011;52365;47.464;18.976;2024-03-02T00:52:14;28.25;;;18.17;;
65665;SDS011;52365;47.464;18.976;2024-03-02T00:52:35;31.87;;;19.15;;
65665;SDS011;52365;47.464;18.976;2024-03-02T00:52:56;32.72;;;19.27;;
65665;SDS011;52365;47.464;18.976;2024-03-02T00:53:12;29.95;;;18.00;;
65665;SDS011;52365;47.464;18.976;2024-03-02T00:53:33;29.42;;;17.67;;
65665;SDS011;52365;47.464;18.976;2024-03-02T00:53:54;31.75;;;18.37;;
65665;SDS011;52365;47.464;18.976;2024-03-02T00:54:21;30.65;;;18.85;;
65665;SDS011;52365;47.464;18.976;2024-03-02T00:54:49;29.77;;;18.50;;
65665;SDS011;52365;47.464;18.976;2024-03-02T00:55:10;28.67;;;18.35;;
65665;SDS011;52365;47.464;18.976;2024-03-02T00:55:31;29.27;;;18.55;;
65665;SDS011;52365;47.464;18.976;2024-03-02T00:55:57;28.00;;;18.33;;
65665;SDS011;52365;47.464;18.976;2024-03-02T00:56:19;30.45;;;18.65;;
65665;SDS011;52365;47.464;18.976;2024-03-02T00:56:40;27.77;;;17.90;;
65665;SDS011;52365;47.464;18.976;2024-03-02T00:57:02;28.52;;;17.80;;
65665;SDS011;52365;47.464;18.976;2024-03-02T00:57:25;28.95;;;17.73;;
65665;SDS011;52365;47.464;18.976;2024-03-02T00:57:47;30.62;;;17.70;;
65665;SDS011;52365;47.464;18.976;2024-03-02T00:58:08;29.67;;;18.02;;
65665;SDS011;52365;47.464;18.976;2024-03-02T00:58:29;30.02;;;18.45;;
65665;SDS011;52365;47.464;18.976;2024-03-02T00:58:50;31.20;;;18.73;;
65665;SDS011;52365;47.464;18.976;2024-03-02T00:59:12;31.67;;;18.92;;
65665;SDS011;52365;47.464;18.976;2024-03-02T00:59:33;29.20;;;18.25;;
65665;SDS011;52365;47.464;18.976;2024-03-02T00:59:51;27.98;;;17.83;;
65665;SDS011;52365;47.464;18.976;2024-03-02T01:00:13;30.17;;;17.83;;
65665;SDS011;52365;47.464;18.976;2024-03-02T01:00:35;31.15;;;18.70;;
65665;SDS011;52365;47.464;18.976;2024-03-02T01:00:56;29.48;;;18.67;;
65665;SDS011;52365;47.464;18.976;2024-03-02T01:01:18;32.40;;;19.02;;
65665;SDS011;52365;47.464;18.976;2024-03-02T01:01:40;30.83;;;18.73;;
65665;SDS011;52365;47.464;18.976;2024-03-02T01:02:01;31.92;;;18.95;;
65665;SDS011;52365;47.464;18.976;2024-03-02T01:02:22;32.85;;;19.27;;
65665;SDS011;52365;47.464;18.976;2024-03-02T01:02:43;31.15;;;18.83;;
65665;SDS011;52365;47.464;18.976;2024-03-02T01:03:06;29.70;;;18.70;;
65665;SDS011;52365;47.464;18.976;2024-03-02T01:03:28;30.58;;;18.65;;
65665;SDS011;52365;47.464;18.976;2024-03-02T01:03:49;32.35;;;19.08;;
65665;SDS011;52365;47.464;18.976;2024-03-02T01:04:10;30.62;;;18.50;;
65665;SDS011;52365;47.464;18.976;2024-03-02T01:04:31;30.65;;;18.33;;
65665;SDS011;52365;47.464;18.976;2024-03-02T01:04:52;30.67;;;18.37;;
65665;SDS011;52365;47.464;18.976;2024-03-02T01:05:13;31.45;;;18.48;;
65665;SDS011;52365;47.464;18.976;2024-03-02T01:05:34;31.58;;;18.27;;
65665;SDS011;52365;47.464;18.976;2024-03-02T01:05:56;29.65;;;18.30;;
65665;SDS011;52365;47.464;18.976;2024-03-02T01:06:17;30.15;;;18.33;;
65665;SDS011;52365;47.464;18.976;2024-03-02T01:06:37;29.12;;;18.35;;
65665;SDS011;52365;47.464;18.976;2024-03-02T01:06:58;30.23;;;18.20;;
65665;SDS011;52365;47.464;18.976;2024-03-02T01:07:19;29.98;;;18.00;;
65665;SDS011;52365;47.464;18.976;2024-03-02T01:07:40;30.25;;;18.40;;
65665;SDS011;52365;47.464;18.976;2024-03-02T01:08:01;29.52;;;18.33;;
65665;SDS011;52365;47.464;18.976;2024-03-02T01:08:23;29.10;;;18.17;;
65665;SDS011;52365;47.464;18.976;2024-03-02T01:08:44;30.95;;;18.20;;
65665;SDS011;52365;47.464;18.976;2024-03-02T01:09:05;32.22;;;18.50;;
65665;SDS011;52365;47.464;18.976;2024-03-02T01:09:26;32.05;;;17.75;;
65665;SDS011;52365;47.464;18.976;2024-03-02T01:09:47;34.30;;;17.33;;
65665;SDS011;52365;47.464;18.976;2024-03-02T01:10:03;30.92;;;17.58;;
65665;SDS011;52365;47.464;18.976;2024-03-02T01:10:25;27.65;;;17.67;;
65665;SDS011;52365;47.464;18.976;2024-03-02T01:10:48;27.58;;;17.25;;
65665;SDS011;52365;47.464;18.976;2024-03-02T01:11:10;26.70;;;16.55;;
65665;SDS011;52365;47.464;18.976;2024-03-02T01:11:31;27.52;;;17.08;;
65665;SDS011;52365;47.464;18.976;2024-03-02T01:11:52;28.67;;;17.37;;
65665;SDS011;52365;47.464;18.976;2024-03-02T01:12:13;27.37;;;16.92;;
65665;SDS011;52365;47.464;18.976;2024-03-02T01:12:34;28.25;;;17.02;;
65665;SDS011;52365;47.464;18.976;2024-03-02T01:12:55;30.85;;;17.48;;
65665;SDS011;52365;47.464;18.976;2024-03-02T01:13:16;30.20;;;17.65;;
65665;SDS011;52365;47.464;18.976;2024-03-02T01:13:37;28.83;;;17.52;;
65665;SDS011;52365;47.464;18.976;2024-03-02T01:13:58;29.67;;;16.87;;
65665;SDS011;52365;47.464;18.976;2024-03-02T01:14:19;28.08;;;16.85;;
65665;SDS011;52365;47.464;18.976;2024-03-02T01:14:39;26.52;;;16.85;;
65665;SDS011;52365;47.464;18.976;2024-03-02T01:15:00;27.95;;;16.90;;
65665;SDS011;52365;47.464;18.976;2024-03-02T01:15:21;29.63;;;17.05;;
65665;SDS011;52365;47.464;18.976;2024-03-02T01:15:37;30.23;;;17.70;;
65665;SDS011;52365;47.464;18.976;2024-03-02T01:15:58;30.20;;;17.92;;
65665;SDS011;52365;47.464;18.976;2024-03-02T01:16:20;31.35;;;17.70;;
65665;SDS011;52365;47.464;18.976;2024-03-02T01:16:41;30.55;;;18.10;;
65665;SDS011;52365;47.464;18.976;2024-03-02T01:17:02;28.77;;;18.08;;
65665;SDS011;52365;47.464;18.976;2024-03-02T01:17:25;31.87;;;18.52;;
65665;SDS011;52365;47.464;18.976;2024-03-02T01:17:45;31.08;;;18.10;;
65665;SDS011;52365;47.464;18.976;2024-03-02T01:18:06;29.80;;;17.05;;
65665;SDS011;52365;47.464;18.976;2024-03-02T01:18:28;29.10;;;17.40;;
65665;SDS011;52365;47.464;18.976;2024-03-02T01:18:49;29.77;;;17.80;;
65665;SDS011;52365;47.464;18.976;2024-03-02T01:19:10;32.10;;;17.70;;
65665;SDS011;52365;47.464;18.976;2024-03-02T01:19:31;30.50;;;17.98;;
65665;SDS011;52365;47.464;18.976;2024-03-02T01:19:52;28.83;;;17.90;;
65665;SDS011;52365;47.464;18.976;2024-03-02T01:20:13;30.08;;;18.33;;
65665;SDS011;52365;47.464;18.976;2024-03-02T01:20:34;31.55;;;18.60;;
65665;SDS011;52365;47.464;18.976;2024-03-02T01:20:55;29.52;;;17.73;;
65665;SDS011;52365;47.464;18.976;2024-03-02T01:21:16;29.60;;;17.85;;
65665;SDS011;52365;47.464;18.976;2024-03-02T01:21:37;30.08;;;18.23;;
65665;SDS011;52365;47.464;18.976;2024-03-02T01:21:58;30.50;;;18.48;;
65665;SDS011;52365;47.464;18.976;2024-03-02T01:22:19;29.77;;;18.08;;
65665;SDS011;52365;47.464;18.976;2024-03-02T01:22:45;27.10;;;17.67;;
65665;SDS011;52365;47.464;18.976;2024-03-02T01:23:06;28.25;;;17.75;;
65665;SDS011;52365;47.464;18.976;2024-03-02T01:23:27;30.50;;;18.02;;
65665;SDS011;52365;47.464;18.976;2024-03-02T01:23:48;31.33;;;18.30;;
65665;SDS011;52365;47.464;18.976;2024-03-02T01:24:09;28.60;;;17.58;;
65665;SDS011;52365;47.464;18.976;2024-03-02T01:24:30;28.98;;;18.10;;
65665;SDS011;52365;47.464;18.976;2024-03-02T01:24:51;30.15;;;18.08;;
65665;SDS011;52365;47.464;18.976;2024-03-02T01:25:12;27.73;;;17.60;;
65665;SDS011;52365;47.464;18.976;2024-03-02T01:25:34;28.17;;;17.17;;
65665;SDS011;52365;47.464;18.976;2024-03-02T01:25:56;30.40;;;17.98;;
65665;SDS011;52365;47.464;18.976;2024-03-02T01:26:17;31.27;;;17.67;;
65665;SDS011;52365;47.464;18.976;2024-03-02T01:26:38;30.35;;;18.02;;
65665;SDS011;52365;47.464;18.976;2024-03-02T01:26:59;28.95;;;17.50;;
65665;SDS011;52365;47.464;18.976;2024-03-02T01:27:19;27.37;;;17.58;;
65665;SDS011;52365;47.464;18.976;2024-03-02T01:27:40;27.70;;;17.67;;
65665;SDS011;52365;47.464;18.976;2024-03-02T01:28:01;27.35;;;16.80;;
65665;SDS011;52365;47.464;18.976;2024-03-02T01:28:22;27.60;;;16.98;;
65665;SDS011;52365;47.464;18.976;2024-03-02T01:28:38;28.33;;;17.10;;
65665;SDS011;52365;47.464;18.976;2024-03-02T01:28:59;26.37;;;16.65;;
65665;SDS011;52365;47.464;18.976;2024-03-02T01:29:22;29.00;;;17.52;;
65665;SDS011;52365;47.464;18.976;2024-03-02T01:29:42;30.60;;;17.42;;
65665;SDS011;52365;47.464;18.976;2024-03-02T01:30:04;28.77;;;17.02;;
65665;SDS011;52365;47.464;18.976;2024-03-02T01:30:25;30.12;;;17.67;;
65665;SDS011;52365;47.464;18.976;2024-03-02T01:30:47;30.98;;;17.77;;
65665;SDS011;52365;47.464;18.976;2024-03-02T01:31:10;27.37;;;16.73;;
65665;SDS011;52365;47.464;18.976;2024-03-02T01:31:31;28.48;;;17.17;;
65665;SDS011;52365;47.464;18.976;2024-03-02T01:31:53;29.45;;;17.40;;
65665;SDS011;52365;47.464;18.976;2024-03-02T01:32:14;28.65;;;17.40;;
65665;SDS011;52365;47.464;18.976;2024-03-02T01:32:37;27.25;;;16.70;;
65665;SDS011;52365;47.464;18.976;2024-03-02T01:32:59;31.65;;;17.40;;
65665;SDS011;52365;47.464;18.976;2024-03-02T01:33:20;28.83;;;17.27;;
65665;SDS011;52365;47.464;18.976;2024-03-02T01:33:41;28.35;;;17.70;;
65665;SDS011;52365;47.464;18.976;2024-03-02T01:34:02;27.52;;;17.45;;
65665;SDS011;52365;47.464;18.976;2024-03-02T01:34:23;29.73;;;17.27;;
65665;SDS011;52365;47.464;18.976;2024-03-02T01:34:45;32.17;;;17.80;;
65665;SDS011;52365;47.464;18.976;2024-03-02T01:35:06;28.15;;;17.52;;
65665;SDS011;52365;47.464;18.976;2024-03-02T01:35:28;28.35;;;17.75;;
65665;SDS011;52365;47.464;18.976;2024-03-02T01:35:48;30.58;;;17.60;;
65665;SDS011;52365;47.464;18.976;2024-03-02T01:36:09;30.17;;;17.42;;
65665;SDS011;52365;47.464;18.976;2024-03-02T01:36:30;30.27;;;17.73;;
65665;SDS011;52365;47.464;18.976;2024-03-02T01:36:51;28.87;;;17.80;;
65665;SDS011;52365;47.464;18.976;2024-03-02T01:37:12;29.50;;;17.58;;
65665;SDS011;52365;47.464;18.976;2024-03-02T01:37:28;29.75;;;17.80;;
65665;SDS011;52365;47.464;18.976;2024-03-02T01:37:49;29.80;;;17.50;;
65665;SDS011;52365;47.464;18.976;2024-03-02T01:38:10;28.35;;;17.05;;
65665;SDS011;52365;47.464;18.976;2024-03-02T01:38:31;29.55;;;17.73;;
65665;SDS011;52365;47.464;18.976;2024-03-02T01:38:52;28.55;;;17.02;;
65665;SDS011;52365;47.464;18.976;2024-03-02T01:39:13;27.92;;;17.20;;
65665;SDS011;52365;47.464;18.976;2024-03-02T01:39:34;29.85;;;17.67;;
65665;SDS011;52365;47.464;18.976;2024-03-02T01:39:55;29.90;;;17.92;;
65665;SDS011;52365;47.464;18.976;2024-03-02T01:40:16;32.00;;;17.87;;
65665;SDS011;52365;47.464;18.976;2024-03-02T01:40:37;28.55;;;17.20;;
65665;SDS011;52365;47.464;18.976;2024-03-02T01:40:58;27.15;;;17.05;;
65665;SDS011;52365;47.464;18.976;2024-03-02T01:41:19;28.48;;;17.70;;
65665;SDS011;52365;47.464;18.976;2024-03-02T01:41:40;29.42;;;18.05;;
65665;SDS011;52365;47.464;18.976;2024-03-02T01:42:01;30.37;;;18.40;;
65665;SDS011;52365;47.464;18.976;2024-03-02T01:42:22;30.62;;;18.30;;
65665;SDS011;52365;47.464;18.976;2024-03-02T01:42:43;28.05;;;17.92;;
65665;SDS011;52365;47.464;18.976;2024-03-02T01:43:05;28.58;;;17.48;;
65665;SDS011;52365;47.464;18.976;2024-03-02T01:43:26;29.20;;;18.05;;
65665;SDS011;52365;47.464;18.976;2024-03-02T01:43:48;29.65;;;17.83;;
65665;SDS011;52365;47.464;18.976;2024-03-02T01:44:09;27.65;;;17.00;;
65665;SDS011;52365;47.464;18.976;2024-03-02T01:44:30;29.70;;;17.75;;
65665;SDS011;52365;47.464;18.976;2024-03-02T01:44:51;29.83;;;17.65;;
65665;SDS011;52365;47.464;18.976;2024-03-02T01:45:12;30.30;;;17.62;;
65665;SDS011;52365;47.464;18.976;2024-03-02T01:45:33;29.45;;;18.15;;
65665;SDS011;52365;47.464;18.976;2024-03-02T01:45:56;29.45;;;17.35;;
65665;SDS011;52365;47.464;18.976;2024-03-02T01:46:17;29.63;;;17.85;;
65665;SDS011;52365;47.464;18.976;2024-03-02T01:46:38;28.33;;;17.95;;
65665;SDS011;52365;47.464;18.976;2024-03-02T01:46:59;28.30;;;17.83;;
65665;SDS011;52365;47.464;18.976;2024-03-02T01:47:20;29.48;;;17.75;;
65665;SDS011;52365;47.464;18.976;2024-03-02T01:47:41;28.62;;;17.30;;
65665;SDS011;52365;47.464;18.976;2024-03-02T01:48:02;28.50;;;17.50;;
65665;SDS011;52365;47.464;18.976;2024-03-02T01:48:23;28.98;;;17.58;;
65665;SDS011;52365;47.464;18.976;2024-03-02T01:48:44;28.12;;;17.37;;
65665;SDS011;52365;47.464;18.976;2024-03-02T01:49:05;30.25;;;17.65;;
65665;SDS011;52365;47.464;18.976;2024-03-02T01:49:26;30.08;;;17.95;;
65665;SDS011;52365;47.464;18.976;2024-03-02T01:49:47;28.60;;;17.65;;
65665;SDS011;52365;47.464;18.976;2024-03-02T01:50:08;27.98;;;16.77;;
65665;SDS011;52365;47.464;18.976;2024-03-02T01:50:27;27.58;;;17.17;;
65665;SDS011;52365;47.464;18.976;2024-03-02T01:50:49;30.92;;;17.75;;
65665;SDS011;52365;47.464;18.976;2024-03-02T01:51:10;28.48;;;17.37;;
65665;SDS011;52365;47.464;18.976;2024-03-02T01:51:31;28.55;;;17.33;;
65665;SDS011;52365;47.464;18.976;2024-03-02T01:51:53;29.67;;;17.33;;
65665;SDS011;52365;47.464;18.976;2024-03-02T01:52:14;29.77;;;17.75;;
65665;SDS011;52365;47.464;18.976;2024-03-02T01:52:35;31.83;;;18.35;;
65665;SDS011;52365;47.464;18.976;2024-03-02T01:52:56;31.48;;;18.42;;
65665;SDS011;52365;47.464;18.976;2024-03-02T01:53:17;29.35;;;17.60;;
65665;SDS011;52365;47.464;18.976;2024-03-02T01:53:38;30.23;;;17.27;;
65665;SDS011;52365;47.464;18.976;2024-03-02T01:53:59;28.65;;;17.40;;
65665;SDS011;52365;47.464;18.976;2024-03-02T01:54:20;30.92;;;17.55;;
65665;SDS011;52365;47.464;18.976;2024-03-02T01:54:41;30.27;;;18.05;;
65665;SDS011;52365;47.464;18.976;2024-03-02T01:55:02;28.35;;;17.48;;
65665;SDS011;52365;47.464;18.976;2024-03-02T01:55:23;29.02;;;17.30;;
65665;SDS011;52365;47.464;18.976;2024-03-02T01:55:44;27.02;;;16.73;;
65665;SDS011;52365;47.464;18.976;2024-03-02T01:56:05;28.25;;;17.05;;
65665;SDS011;52365;47.464;18.976;2024-03-02T01:56:26;27.95;;;17.08;;
65665;SDS011;52365;47.464;18.976;2024-03-02T01:56:47;29.37;;;17.50;;
65665;SDS011;52365;47.464;18.976;2024-03-02T01:57:08;27.90;;;17.65;;
65665;SDS011;52365;47.464;18.976;2024-03-02T01:57:29;29.58;;;18.12;;
65665;SDS011;52365;47.464;18.976;2024-03-02T01:57:51;29.95;;;17.45;;
65665;SDS011;52365;47.464;18.976;2024-03-02T01:58:13;27.40;;;17.33;;
65665;SDS011;52365;47.464;18.976;2024-03-02T01:58:34;30.23;;;17.27;;
65665;SDS011;52365;47.464;18.976;2024-03-02T01:58:55;32.63;;;17.00;;
65665;SDS011;52365;47.464;18.976;2024-03-02T01:59:16;30.25;;;16.95;;
65665;SDS011;52365;47.464;18.976;2024-03-02T01:59:37;29.92;;;16.98;;
65665;SDS011;52365;47.464;18.976;2024-03-02T01:59:58;27.30;;;16.83;;
65665;SDS011;52365;47.464;18.976;2024-03-02T02:00:19;30.05;;;17.50;;
65665;SDS011;52365;47.464;18.976;2024-03-02T02:00:41;28.50;;;17.58;;
65665;SDS011;52365;47.464;18.976;2024-03-02T02:01:02;28.80;;;17.23;;
65665;SDS011;52365;47.464;18.976;2024-03-02T02:01:23;26.80;;;17.02;;
65665;SDS011;52365;47.464;18.976;2024-03-02T02:01:44;25.67;;;16.87;;
65665;SDS011;52365;47.464;18.976;2024-03-02T02:02:05;27.90;;;16.90;;
65665;SDS011;52365;47.464;18.976;2024-03-02T02:02:26;26.87;;;16.98;;
65665;SDS011;52365;47.464;18.976;2024-03-02T02:02:50;28.27;;;17.25;;
65665;SDS011;52365;47.464;18.976;2024-03-02T02:03:12;28.25;;;16.77;;
65665;SDS011;52365;47.464;18.976;2024-03-02T02:03:33;28.15;;;17.58;;
65665;SDS011;52365;47.464;18.976;2024-03-02T02:03:54;28.27;;;17.35;;
65665;SDS011;52365;47.464;18.976;2024-03-02T02:04:16;27.23;;;17.40;;
65665;SDS011;52365;47.464;18.976;2024-03-02T02:04:37;30.77;;;17.73;;
65665;SDS011;52365;47.464;18.976;2024-03-02T02:04:57;28.73;;;17.20;;
65665;SDS011;52365;47.464;18.976;2024-03-02T02:05:18;27.58;;;17.10;;
65665;SDS011;52365;47.464;18.976;2024-03-02T02:05:41;29.42;;;17.05;;
65665;SDS011;52365;47.464;18.976;2024-03-02T02:06:03;27.52;;;16.95;;
65665;SDS011;52365;47.464;18.976;2024-03-02T02:06:24;26.62;;;16.05;;
65665;SDS011;52365;47.464;18.976;2024-03-02T02:06:45;28.67;;;16.80;;
65665;SDS011;52365;47.464;18.976;2024-03-02T02:07:06;29.37;;;17.48;;